createdAt,value
2019-04-10T00:01:55.097Z,63.39
2019-04-10T00:04:23.048Z,63.44
2019-04-10T00:06:50.132Z,63.34
2019-04-10T00:09:17.261Z,63.74
2019-04-10T00:11:45.075Z,63.89
2019-04-10T00:14:12.387Z,63.90
2019-04-10T00:16:40.416Z,63.76
2019-04-10T00:19:08.521Z,63.54
2019-04-10T00:21:35.613Z,63.68
2019-04-10T00:24:03.803Z,63.80
2019-04-10T00:26:31.949Z,63.16
2019-04-10T00:29:00.235Z,63.01
2019-04-10T00:31:27.588Z,63.19
2019-04-10T00:33:54.749Z,63.00
2019-04-10T00:36:21.662Z,62.50
2019-04-10T00:38:48.717Z,62.67
2019-04-10T00:41:16.357Z,62.53
2019-04-10T00:43:43.476Z,62.21
2019-04-10T00:46:10.993Z,62.28
2019-04-10T00:48:37.748Z,61.84
2019-04-10T00:51:04.773Z,61.78
2019-04-10T00:53:31.615Z,62.23
2019-04-10T00:55:59.814Z,62.36
2019-04-10T00:58:27.991Z,62.57
2019-04-10T01:00:55.161Z,62.03
2019-04-10T01:03:42.031Z,62.38
2019-04-10T01:06:08.926Z,62.59
2019-04-10T01:08:35.726Z,62.65
2019-04-10T01:11:03.086Z,62.12
2019-04-10T01:13:30.020Z,62.06
2019-04-10T01:15:57.066Z,62.37
2019-04-10T01:18:25.139Z,62.42
2019-04-10T01:20:52.187Z,62.91
2019-04-10T01:23:19.031Z,62.47
2019-04-10T01:25:46.487Z,62.68
2019-04-10T01:28:14.217Z,62.47
2019-04-10T01:30:42.312Z,62.43
2019-04-10T01:33:09.249Z,62.41
2019-04-10T01:35:36.251Z,62.59
2019-04-10T01:38:05.840Z,62.33
2019-04-10T01:40:32.035Z,63.37
2019-04-10T01:43:06.618Z,63.28
2019-04-10T01:45:27.691Z,63.29
2019-04-10T01:47:55.323Z,63.50
2019-04-10T01:50:22.399Z,63.03
2019-04-10T01:52:49.547Z,63.21
2019-04-10T01:55:24.207Z,63.59
2019-04-10T01:57:46.341Z,63.38
2019-04-10T02:00:15.309Z,63.33
2019-04-10T02:02:47.697Z,62.88
2019-04-10T02:05:14.736Z,62.82
2019-04-10T02:07:42.391Z,63.26
2019-04-10T02:10:10.068Z,63.05
2019-04-10T02:12:37.151Z,63.18
2019-04-10T02:15:04.916Z,63.63
2019-04-10T02:17:32.632Z,63.15
2019-04-10T02:20:00.720Z,63.13
2019-04-10T02:22:28.653Z,62.89
2019-04-10T02:24:55.824Z,63.29
2019-04-10T02:27:22.930Z,63.07
2019-04-10T02:29:50.250Z,63.48
2019-04-10T02:32:18.991Z,63.12
2019-04-10T02:34:46.903Z,63.31
2019-04-10T02:37:15.350Z,63.37
2019-04-10T02:39:47.008Z,64.26
2019-04-10T02:42:11.402Z,64.33
2019-04-10T02:44:38.364Z,63.52
2019-04-10T02:47:06.426Z,63.52
2019-04-10T02:49:33.474Z,64.39
2019-04-10T02:52:00.778Z,63.93
2019-04-10T02:54:28.949Z,64.26
2019-04-10T02:56:56.875Z,63.74
2019-04-10T02:59:23.931Z,64.46
2019-04-10T03:01:52.377Z,63.92
2019-04-10T03:04:20.631Z,64.07
2019-04-10T03:06:47.927Z,64.09
2019-04-10T03:09:32.328Z,63.72
2019-04-10T03:11:44.434Z,64.06
2019-04-10T03:14:12.710Z,64.20
2019-04-10T03:16:39.924Z,64.48
2019-04-10T03:19:07.470Z,64.66
2019-04-10T03:21:35.403Z,63.93
2019-04-10T03:24:02.341Z,64.88
2019-04-10T03:26:29.890Z,65.20
2019-04-10T03:28:57.699Z,65.28
2019-04-10T03:31:25.435Z,65.25
2019-04-10T03:33:55.904Z,64.59
2019-04-10T03:36:23.216Z,65.06
2019-04-10T03:38:59.611Z,64.94
2019-04-10T03:41:19.774Z,64.83
2019-04-10T03:43:46.907Z,65.45
2019-04-10T03:46:14.092Z,65.59
2019-04-10T03:48:41.268Z,65.04
2019-04-10T03:51:08.242Z,64.22
2019-04-10T03:53:35.322Z,64.73
2019-04-10T03:56:02.289Z,65.27
2019-04-10T03:58:29.515Z,64.37
2019-04-10T04:00:56.147Z,64.70
2019-04-10T04:03:23.159Z,64.75
2019-04-10T04:05:51.144Z,64.71
2019-04-10T04:08:18.123Z,64.68
2019-04-10T04:10:45.113Z,64.99
2019-04-10T04:13:12.255Z,65.20
2019-04-10T04:15:39.533Z,64.60
2019-04-10T04:18:06.325Z,64.46
2019-04-10T04:20:33.400Z,64.26
2019-04-10T04:23:01.267Z,65.18
2019-04-10T04:25:28.338Z,64.50
2019-04-10T04:27:55.513Z,64.51
2019-04-10T04:30:22.492Z,64.66
2019-04-10T04:32:50.438Z,64.94
2019-04-10T04:35:17.658Z,65.24
2019-04-10T04:37:44.643Z,65.63
2019-04-10T04:40:11.526Z,65.14
2019-04-10T04:42:38.675Z,65.24
2019-04-10T04:45:05.932Z,65.41
2019-04-10T04:47:33.333Z,64.75
2019-04-10T04:50:01.357Z,64.59
2019-04-10T04:52:30.957Z,65.20
2019-04-10T04:54:57.809Z,64.75
2019-04-10T04:57:24.962Z,65.59
2019-04-10T04:59:52.615Z,64.86
2019-04-10T05:02:19.948Z,65.02
2019-04-10T05:04:46.958Z,65.01
2019-04-10T05:07:14.831Z,65.29
2019-04-10T05:09:42.221Z,65.67
2019-04-10T05:12:09.414Z,65.47
2019-04-10T05:14:36.278Z,65.63
2019-04-10T05:17:03.911Z,65.09
2019-04-10T05:19:30.850Z,65.35
2019-04-10T05:21:57.693Z,65.39
2019-04-10T05:24:24.325Z,65.48
2019-04-10T05:26:51.249Z,65.62
2019-04-10T05:29:18.231Z,65.79
2019-04-10T05:31:45.273Z,66.37
2019-04-10T05:34:12.257Z,65.73
2019-04-10T05:36:39.977Z,65.16
2019-04-10T05:39:06.931Z,65.65
2019-04-10T05:41:33.649Z,66.19
2019-04-10T05:44:00.718Z,66.00
2019-04-10T05:46:28.323Z,65.94
2019-04-10T05:48:55.925Z,66.20
2019-04-10T05:51:23.389Z,65.81
2019-04-10T05:53:52.658Z,65.97
2019-04-10T05:56:20.577Z,65.51
2019-04-10T05:58:48.988Z,65.27
2019-04-10T06:01:16.310Z,65.12
2019-04-10T06:03:43.158Z,65.35
2019-04-10T06:06:10.391Z,65.03
2019-04-10T06:08:37.595Z,65.02
2019-04-10T06:11:06.684Z,64.99
2019-04-10T06:13:34.759Z,64.35
2019-04-10T06:16:02.104Z,64.79
2019-04-10T06:18:29.305Z,64.54
2019-04-10T06:20:57.346Z,64.39
2019-04-10T06:23:25.329Z,63.82
2019-04-10T06:25:52.649Z,63.43
2019-04-10T06:28:19.637Z,62.55
2019-04-10T06:30:46.472Z,61.16
2019-04-10T06:33:13.520Z,61.31
2019-04-10T06:35:40.574Z,61.56
2019-04-10T06:38:07.661Z,61.39
2019-04-10T06:40:35.572Z,60.95
2019-04-10T06:43:02.701Z,61.01
2019-04-10T06:45:29.826Z,61.04
2019-04-10T06:47:57.114Z,61.79
2019-04-10T06:50:24.051Z,60.07
2019-04-10T06:52:51.352Z,59.88
2019-04-10T06:55:18.582Z,59.54
2019-04-10T06:57:51.791Z,58.84
2019-04-10T07:00:18.060Z,59.16
2019-04-10T07:02:46.289Z,59.12
2019-04-10T07:05:14.983Z,60.26
2019-04-10T07:07:50.860Z,59.96
2019-04-10T07:10:23.592Z,59.25
2019-04-10T07:12:39.887Z,59.15
2019-04-10T07:15:08.389Z,59.51
2019-04-10T07:17:40.351Z,60.62
2019-04-10T07:20:05.356Z,59.22
2019-04-10T07:22:33.101Z,59.60
2019-04-10T07:25:00.534Z,59.78
2019-04-10T07:27:27.787Z,60.41
2019-04-10T07:29:58.073Z,60.57
2019-04-10T07:32:24.334Z,58.86
2019-04-10T07:34:51.357Z,58.74
2019-04-10T07:37:21.613Z,58.57
2019-04-10T07:39:47.319Z,57.72
2019-04-10T07:42:25.898Z,57.73
2019-04-10T07:44:43.900Z,57.75
2019-04-10T07:47:11.123Z,58.66
2019-04-10T07:49:39.617Z,59.65
2019-04-10T07:52:06.920Z,58.13
2019-04-10T07:54:34.951Z,59.18
2019-04-10T07:57:02.116Z,58.56
2019-04-10T07:59:29.332Z,58.64
2019-04-10T08:01:56.482Z,58.65
2019-04-10T08:04:26.837Z,59.06
2019-04-10T08:06:54.388Z,58.17
2019-04-10T08:09:21.446Z,58.36
2019-04-10T08:11:48.926Z,58.22
2019-04-10T08:14:16.799Z,58.53
2019-04-10T08:16:44.114Z,58.00
2019-04-10T08:19:10.850Z,57.15
2019-04-10T08:21:38.078Z,57.57
2019-04-10T08:24:05.213Z,58.68
2019-04-10T08:26:32.514Z,58.01
2019-04-10T08:28:59.851Z,57.02
2019-04-10T08:31:26.969Z,57.29
2019-04-10T08:33:55.002Z,58.19
2019-04-10T08:36:23.444Z,56.22
2019-04-10T08:38:50.884Z,56.71
2019-04-10T08:41:17.771Z,56.95
2019-04-10T08:43:44.480Z,57.37
2019-04-10T08:46:11.440Z,56.49
2019-04-10T08:48:39.181Z,56.70
2019-04-10T08:51:06.612Z,55.78
2019-04-10T08:53:34.328Z,56.38
2019-04-10T08:56:02.271Z,55.52
2019-04-10T08:58:29.190Z,55.41
2019-04-10T09:00:56.579Z,56.71
2019-04-10T09:03:24.546Z,56.21
2019-04-10T09:05:53.081Z,56.93
2019-04-10T09:08:21.074Z,56.23
2019-04-10T09:10:48.063Z,54.08
2019-04-10T09:13:15.316Z,54.63
2019-04-10T09:15:42.465Z,54.83
2019-04-10T09:18:11.261Z,54.83
2019-04-10T09:20:38.515Z,54.90
2019-04-10T09:25:35.368Z,54.04
2019-04-10T09:28:02.326Z,53.35
2019-04-10T09:30:29.212Z,54.33
2019-04-10T09:32:57.003Z,53.83
2019-04-10T09:35:24.639Z,53.90
2019-04-10T09:37:52.453Z,53.41
2019-04-10T09:40:20.438Z,54.20
2019-04-10T09:42:48.012Z,54.74
2019-04-10T09:45:15.628Z,54.64
2019-04-10T09:47:43.769Z,53.66
2019-04-10T09:50:11.283Z,52.62
2019-04-10T09:52:38.327Z,53.26
2019-04-10T09:55:05.279Z,52.75
2019-04-10T09:57:32.240Z,52.62
2019-04-10T09:59:59.397Z,53.26
2019-04-10T10:02:27.476Z,52.16
2019-04-10T10:04:55.650Z,52.65
2019-04-10T10:07:22.551Z,52.66
2019-04-10T10:09:49.366Z,52.62
2019-04-10T10:12:16.145Z,51.93
2019-04-10T10:14:44.206Z,51.97
2019-04-10T10:17:11.356Z,51.18
2019-04-10T10:19:39.284Z,51.45
2019-04-10T10:22:07.601Z,51.46
2019-04-10T10:24:35.035Z,52.96
2019-04-10T10:27:02.477Z,53.86
2019-04-10T10:29:30.117Z,53.55
2019-04-10T10:31:57.141Z,54.22
2019-04-10T10:34:23.955Z,53.43
2019-04-10T10:36:53.144Z,54.54
2019-04-10T10:39:20.962Z,53.76
2019-04-10T10:41:49.022Z,55.51
2019-04-10T10:44:17.241Z,53.48
2019-04-10T10:46:44.249Z,54.69
2019-04-10T10:49:11.200Z,53.53
2019-04-10T10:51:39.142Z,53.52
2019-04-10T10:54:06.147Z,52.67
2019-04-10T10:56:34.176Z,53.57
2019-04-10T10:59:01.127Z,51.35
2019-04-10T11:01:28.000Z,51.39
2019-04-10T11:03:56.268Z,51.57
2019-04-10T11:06:24.673Z,51.82
2019-04-10T11:08:51.803Z,51.65
2019-04-10T11:11:19.949Z,51.96
2019-04-10T11:13:47.209Z,51.75
2019-04-10T11:16:15.099Z,50.40
2019-04-10T11:18:42.529Z,50.28
2019-04-10T11:21:11.690Z,49.54
2019-04-10T11:23:38.060Z,50.45
2019-04-10T11:26:05.146Z,51.29
2019-04-10T11:28:33.679Z,50.91
2019-04-10T11:31:01.697Z,49.40
2019-04-10T11:33:30.630Z,49.41
2019-04-10T11:35:57.599Z,50.16
2019-04-10T11:38:25.864Z,48.93
2019-04-10T11:40:56.288Z,49.75
2019-04-10T11:43:24.862Z,48.60
2019-04-10T11:45:53.800Z,48.14
2019-04-10T11:48:20.176Z,48.24
2019-04-10T11:50:48.432Z,47.48
2019-04-10T11:53:17.734Z,46.69
2019-04-10T11:55:50.206Z,47.82
2019-04-10T11:58:15.583Z,48.62
2019-04-10T12:00:50.755Z,48.09
2019-04-10T12:03:12.544Z,48.97
2019-04-10T12:05:41.227Z,50.20
2019-04-10T12:08:32.327Z,49.14
2019-04-10T12:13:08.105Z,49.16
2019-04-10T12:15:35.504Z,47.49
2019-04-10T12:18:04.426Z,47.10
2019-04-10T12:20:31.629Z,47.15
2019-04-10T12:22:58.744Z,44.03
2019-04-10T12:25:27.035Z,44.96
2019-04-10T12:27:54.187Z,44.64
2019-04-10T12:30:21.738Z,46.81
2019-04-10T12:32:49.262Z,46.04
2019-04-10T12:35:17.202Z,45.02
2019-04-10T12:37:43.994Z,46.19
2019-04-10T12:40:12.283Z,45.58
2019-04-10T12:42:39.341Z,41.60
2019-04-10T12:45:08.169Z,38.83
2019-04-10T12:47:35.175Z,40.66
2019-04-10T12:50:02.018Z,41.76
2019-04-10T12:52:30.286Z,42.82
2019-04-10T12:54:57.569Z,43.52
2019-04-10T12:57:24.604Z,42.95
2019-04-10T12:59:51.951Z,43.83
2019-04-10T13:02:20.492Z,45.49
2019-04-10T13:04:48.946Z,44.69
2019-04-10T13:07:16.039Z,45.99
2019-04-10T13:09:44.105Z,44.79
2019-04-10T13:12:11.221Z,47.09
2019-04-10T13:14:39.741Z,46.10
2019-04-10T13:17:06.858Z,45.98
2019-04-10T13:19:34.366Z,47.17
2019-04-10T13:22:02.474Z,47.12
2019-04-10T13:24:29.917Z,47.36
2019-04-10T13:26:57.096Z,46.76
2019-04-10T13:29:24.479Z,46.37
2019-04-10T13:31:51.669Z,47.36
2019-04-10T13:34:19.647Z,46.71
2019-04-10T13:36:46.706Z,46.43
2019-04-10T13:39:16.348Z,46.36
2019-04-10T13:41:43.009Z,46.49
2019-04-10T13:44:10.759Z,46.07
2019-04-10T13:46:38.256Z,44.68
2019-04-10T13:49:06.045Z,44.63
2019-04-10T13:51:33.285Z,45.29
2019-04-10T13:54:00.427Z,46.30
2019-04-10T13:56:27.447Z,45.57
2019-04-10T13:58:54.414Z,45.41
2019-04-10T14:01:28.840Z,45.81
2019-04-10T14:03:55.671Z,46.81
2019-04-10T14:06:22.530Z,46.49
2019-04-10T14:09:08.182Z,45.82
2019-04-10T14:11:17.978Z,47.06
2019-04-10T14:13:44.796Z,45.91
2019-04-10T14:16:12.589Z,46.62
2019-04-10T14:18:39.791Z,47.03
2019-04-10T14:21:11.048Z,46.32
2019-04-10T14:23:35.938Z,46.29
2019-04-10T14:26:20.724Z,46.64
2019-04-10T14:28:49.160Z,47.75
2019-04-10T14:31:18.404Z,48.22
2019-04-10T14:33:45.248Z,47.48
2019-04-10T14:36:12.513Z,47.49
2019-04-10T14:38:39.508Z,47.38
2019-04-10T14:41:06.590Z,47.04
2019-04-10T14:43:33.593Z,47.83
2019-04-10T14:46:00.772Z,47.82
2019-04-10T14:48:27.887Z,48.08
2019-04-10T14:50:54.876Z,47.75
2019-04-10T14:53:22.660Z,48.13
2019-04-10T14:55:50.117Z,47.51
2019-04-10T14:58:22.783Z,47.39
2019-04-10T15:00:49.390Z,46.74
2019-04-10T15:03:18.160Z,46.89
2019-04-10T15:05:50.478Z,46.70
2019-04-10T15:08:13.519Z,46.62
2019-04-10T15:10:40.550Z,46.73
2019-04-10T15:13:13.698Z,47.00
2019-04-10T15:15:38.617Z,47.15
2019-04-10T15:18:07.175Z,46.81
2019-04-10T15:20:35.626Z,45.65
2019-04-10T15:23:02.889Z,46.41
2019-04-10T15:25:31.089Z,44.81
2019-04-10T15:27:58.230Z,44.45
2019-04-10T15:30:25.149Z,44.71
2019-04-10T15:32:51.927Z,45.88
2019-04-10T15:35:20.047Z,44.80
2019-04-10T15:37:47.316Z,45.00
2019-04-10T15:40:20.857Z,45.80
2019-04-10T15:42:44.019Z,45.58
2019-04-10T15:45:11.165Z,44.39
2019-04-10T15:47:48.792Z,44.64
2019-04-10T15:50:08.260Z,44.56
2019-04-10T15:52:35.604Z,45.47
2019-04-10T15:55:03.665Z,45.37
2019-04-10T15:57:42.607Z,47.10
2019-04-10T16:00:00.577Z,45.89
2019-04-10T16:02:27.995Z,46.40
2019-04-10T16:04:55.254Z,47.59
2019-04-10T16:07:22.718Z,46.84
2019-04-10T16:09:53.680Z,46.68
2019-04-10T16:12:22.735Z,46.68
2019-04-10T16:14:50.634Z,47.13
2019-04-10T16:17:34.951Z,47.11
2019-04-10T16:20:21.654Z,46.34
2019-04-10T16:22:53.637Z,46.43
2019-04-10T16:25:22.635Z,45.81
2019-04-10T16:27:50.022Z,45.07
2019-04-10T16:30:19.298Z,46.20
2019-04-10T16:32:46.779Z,46.11
2019-04-10T16:35:13.900Z,45.97
2019-04-10T16:37:41.862Z,46.34
2019-04-10T16:40:11.774Z,46.35
2019-04-10T16:42:41.370Z,46.59
2019-04-10T16:45:10.205Z,47.05
2019-04-10T16:47:38.527Z,47.29
2019-04-10T16:50:05.865Z,47.58
2019-04-10T16:52:33.333Z,47.98
2019-04-10T16:55:00.490Z,47.95
2019-04-10T16:57:27.372Z,48.43
2019-04-10T16:59:55.861Z,49.05
2019-04-10T17:02:22.757Z,48.85
2019-04-10T17:04:50.355Z,48.50
2019-04-10T17:07:17.214Z,48.98
2019-04-10T17:09:45.400Z,49.21
2019-04-10T17:12:13.590Z,49.46
2019-04-10T17:14:41.953Z,49.48
2019-04-10T17:17:08.865Z,49.69
2019-04-10T17:19:46.366Z,49.85
2019-04-10T17:22:04.817Z,49.79
2019-04-10T17:24:32.038Z,50.68
2019-04-10T17:26:59.398Z,50.04
2019-04-10T17:29:27.238Z,50.66
2019-04-10T17:31:54.948Z,51.15
2019-04-10T17:34:22.905Z,51.22
2019-04-10T17:36:49.875Z,50.76
2019-04-10T17:39:17.960Z,51.41
2019-04-10T17:41:45.915Z,51.91
2019-04-10T17:44:13.773Z,52.67
2019-04-10T17:46:41.620Z,53.88
2019-04-10T17:49:10.332Z,54.40
2019-04-10T17:51:38.494Z,55.23
2019-04-10T17:54:06.353Z,54.07
2019-04-10T17:56:33.049Z,54.67
2019-04-10T17:59:00.273Z,55.07
2019-04-10T18:01:27.498Z,54.73
2019-04-10T18:03:58.338Z,55.22
2019-04-10T18:06:24.101Z,55.15
2019-04-10T18:08:51.500Z,55.43
2019-04-10T18:11:18.753Z,55.42
2019-04-10T18:13:46.779Z,55.10
2019-04-10T18:16:14.726Z,55.24
2019-04-10T18:18:42.143Z,55.29
2019-04-10T18:21:09.362Z,55.87
2019-04-10T18:23:36.379Z,55.74
2019-04-10T18:26:04.472Z,56.07
2019-04-10T18:28:33.433Z,56.11
2019-04-10T18:31:00.762Z,56.64
2019-04-10T18:33:28.650Z,57.18
2019-04-10T18:35:55.565Z,56.86
2019-04-10T18:38:23.625Z,56.89
2019-04-10T18:40:55.996Z,57.28
2019-04-10T18:43:20.266Z,57.51
2019-04-10T18:45:59.179Z,57.77
2019-04-10T18:48:16.652Z,57.73
2019-04-10T18:50:43.804Z,57.82
2019-04-10T18:53:10.973Z,58.20
2019-04-10T19:01:39.080Z,58.28
2019-04-10T19:04:18.168Z,58.98
2019-04-10T19:06:47.183Z,59.05
2019-04-10T19:09:22.906Z,58.84
2019-04-10T19:11:44.651Z,59.11
2019-04-10T19:14:12.155Z,59.57
2019-04-10T19:16:39.575Z,59.58
2019-04-10T19:19:08.008Z,59.75
2019-04-10T19:21:35.700Z,60.02
2019-04-10T19:24:03.629Z,60.22
2019-04-10T19:26:31.511Z,60.41
2019-04-10T19:28:59.176Z,60.64
2019-04-10T19:31:27.781Z,60.27
2019-04-10T19:33:54.849Z,60.37
2019-04-10T19:36:21.897Z,60.82
2019-04-10T19:38:49.633Z,60.86
2019-04-10T19:41:25.048Z,61.19
2019-04-10T19:43:46.181Z,61.52
2019-04-10T19:46:13.469Z,61.59
2019-04-10T19:48:41.530Z,61.95
2019-04-10T19:51:09.787Z,62.02
2019-04-10T19:53:37.465Z,62.01
2019-04-10T19:56:04.442Z,61.84
2019-04-10T19:58:32.261Z,62.31
2019-04-10T20:01:01.000Z,62.58
2019-04-10T20:03:29.920Z,62.81
2019-04-10T20:05:57.592Z,63.45
2019-04-10T20:08:25.805Z,63.38
2019-04-10T20:10:54.774Z,63.67
2019-04-10T20:13:22.741Z,63.75
2019-04-10T20:15:50.879Z,63.74
2019-04-10T20:18:18.867Z,64.10
2019-04-10T20:20:46.085Z,64.41
2019-04-10T20:23:14.219Z,64.30
2019-04-10T20:25:41.499Z,64.29
2019-04-10T20:28:08.890Z,64.39
2019-04-10T20:30:37.024Z,64.48
2019-04-10T20:33:04.217Z,64.35
2019-04-10T20:35:32.023Z,64.61
2019-04-10T20:37:59.097Z,64.80
2019-04-10T20:40:26.148Z,64.86
2019-04-10T20:42:52.805Z,64.82
2019-04-10T20:45:21.047Z,64.72
2019-04-10T20:47:49.798Z,64.76
2019-04-10T20:50:17.531Z,64.92
2019-04-10T20:52:51.540Z,64.91
2019-04-10T20:55:22.268Z,65.27
2019-04-10T20:57:49.979Z,65.40
2019-04-10T21:00:20.278Z,65.15
2019-04-10T21:02:47.378Z,65.09
2019-04-10T21:05:15.352Z,65.33
2019-04-10T21:07:43.982Z,65.75
2019-04-10T21:10:11.155Z,66.16
2019-04-10T21:12:38.027Z,65.84
2019-04-10T21:15:05.582Z,65.89
2019-04-10T21:17:32.612Z,66.27
2019-04-10T21:20:00.063Z,65.95
2019-04-10T21:22:28.685Z,66.02
2019-04-10T21:24:56.215Z,66.21
2019-04-10T21:27:22.988Z,66.05
2019-04-10T21:29:54.835Z,66.01
2019-04-10T21:32:43.039Z,65.96
2019-04-10T21:35:12.097Z,66.28
2019-04-10T21:37:40.288Z,66.44
2019-04-10T21:40:08.138Z,66.38
2019-04-10T21:42:35.185Z,66.96
2019-04-10T21:45:02.368Z,66.74
2019-04-10T21:47:30.022Z,67.28
2019-04-10T21:49:56.958Z,67.65
2019-04-10T21:52:25.016Z,67.77
2019-04-10T21:54:55.991Z,68.28
2019-04-10T21:57:20.856Z,68.66
2019-04-10T21:59:47.665Z,68.93
2019-04-10T22:02:15.339Z,68.44
2019-04-10T22:04:43.392Z,68.45
2019-04-10T22:07:12.190Z,68.51
2019-04-10T22:09:41.084Z,68.65
2019-04-10T22:12:23.216Z,69.25
2019-04-10T22:14:39.685Z,70.03
2019-04-10T22:17:08.744Z,69.99
2019-04-10T22:19:37.996Z,70.48
2019-04-10T22:22:06.296Z,70.54
2019-04-10T22:24:34.083Z,70.76
2019-04-10T22:27:01.283Z,70.56
2019-04-10T22:29:28.228Z,70.57
2019-04-10T22:31:55.300Z,70.80
2019-04-10T22:34:22.421Z,70.48
2019-04-10T22:36:49.602Z,70.97
2019-04-10T22:39:17.267Z,70.99
2019-04-10T22:41:44.422Z,70.72
2019-04-10T22:44:11.843Z,70.78
2019-04-10T22:46:38.615Z,70.81
2019-04-10T22:49:06.271Z,70.97
2019-04-10T22:51:33.296Z,71.04
2019-04-10T22:54:00.380Z,71.04
2019-04-10T22:56:27.343Z,70.94
2019-04-10T22:58:54.329Z,71.28
2019-04-10T23:01:22.956Z,71.43
2019-04-10T23:03:50.091Z,71.52
2019-04-10T23:06:17.474Z,71.73
2019-04-10T23:08:44.717Z,71.92
2019-04-10T23:11:13.151Z,72.07
2019-04-10T23:13:40.451Z,72.00
2019-04-10T23:16:08.420Z,72.28
2019-04-10T23:18:35.419Z,71.89
2019-04-10T23:21:03.989Z,72.28
2019-04-10T23:23:31.107Z,72.37
2019-04-10T23:25:58.575Z,72.21
2019-04-10T23:28:25.441Z,72.24
2019-04-10T23:30:52.962Z,72.27
2019-04-10T23:33:20.232Z,72.31
2019-04-10T23:35:47.079Z,72.30
2019-04-10T23:38:15.209Z,72.63
2019-04-10T23:40:43.209Z,73.09
2019-04-10T23:43:14.101Z,72.81
2019-04-10T23:45:39.816Z,72.51
2019-04-10T23:48:06.716Z,72.41
2019-04-10T23:50:34.392Z,72.66
2019-04-10T23:53:02.359Z,72.66
2019-04-10T23:55:30.212Z,72.81
2019-04-10T23:57:57.911Z,72.92
